Time;durP1;ratioP1;P1;durP2;ratioP2;P2;SDS_P1;SDS_P2;PMS_P1;PMS_P2;Temp;Humidity;BMP_temperature;BMP_pressure;BME280_temperature;BME280_humidity;BME280_pressure;Samples;Min_cycle;Max_cycle;Signal;HPM_P1;HPM_P2
2023/01/30 00:00:51;;;;;;;63.28;30.83;;;6.30;99.90;;;;;;5091520;27;20099;-66
2023/01/30 00:03:16;;;;;;;59.63;27.55;;;6.30;99.90;;;;;;5105012;27;20069;-67
2023/01/30 00:05:42;;;;;;;58.17;26.67;;;6.30;99.90;;;;;;5110547;27;20424;-66
2023/01/30 00:08:08;;;;;;;56.63;27.42;;;6.30;99.90;;;;;;5130245;27;20035;-67
2023/01/30 00:10:34;;;;;;;59.70;29.05;;;6.30;99.90;;;;;;5105469;27;20075;-67
2023/01/30 00:13:00;;;;;;;60.83;28.85;;;6.30;99.90;;;;;;5103384;27;20035;-65
2023/01/30 00:15:25;;;;;;;62.13;27.85;;;6.30;99.90;;;;;;5108948;27;20107;-65
2023/01/30 00:17:51;;;;;;;56.40;27.38;;;6.30;99.90;;;;;;5102785;27;20042;-67
2023/01/30 00:20:18;;;;;;;58.45;27.13;;;6.40;99.90;;;;;;5104324;27;20047;-66
2023/01/30 00:22:43;;;;;;;61.03;27.52;;;6.30;99.90;;;;;;5104178;27;20042;-67
2023/01/30 00:25:09;;;;;;;56.28;26.80;;;6.30;99.90;;;;;;5101843;27;20032;-67
2023/01/30 00:27:35;;;;;;;59.47;26.75;;;6.30;99.90;;;;;;5121149;27;20034;-68
2023/01/30 00:30:03;;;;;;;58.30;27.05;;;6.40;99.90;;;;;;5103957;27;20035;-68
2023/01/30 00:32:28;;;;;;;61.63;27.90;;;6.40;99.90;;;;;;5105157;27;20446;-67
2023/01/30 00:34:54;;;;;;;59.30;27.08;;;6.40;99.90;;;;;;5104480;27;20039;-66
2023/01/30 00:37:20;;;;;;;56.72;26.13;;;6.40;99.90;;;;;;5106999;27;20397;-66
2023/01/30 00:39:45;;;;;;;55.42;25.73;;;6.40;99.90;;;;;;5125677;27;20043;-66
2023/01/30 00:47:39;;;;;;;53.22;26.23;;;6.50;99.90;;;;;;5102171;27;20512;-66
2023/01/30 00:50:05;;;;;;;45.88;22.33;;;6.50;99.90;;;;;;5105336;27;20031;-66
2023/01/30 00:52:30;;;;;;;52.38;23.05;;;6.60;99.90;;;;;;5100113;27;20035;-66
2023/01/30 00:54:56;;;;;;;50.08;22.63;;;6.50;99.90;;;;;;5098943;27;20027;-65
2023/01/30 00:57:21;;;;;;;53.70;22.10;;;6.60;99.90;;;;;;5101745;27;20088;-66
2023/01/30 00:59:47;;;;;;;47.40;21.95;;;6.70;99.90;;;;;;5100998;27;20035;-67
2023/01/30 01:02:12;;;;;;;46.65;19.38;;;6.70;99.90;;;;;;5101329;27;20509;-66
2023/01/30 01:04:44;;;;;;;41.47;20.13;;;6.70;99.90;;;;;;5104730;27;20039;-66
2023/01/30 01:07:13;;;;;;;46.97;20.35;;;6.80;99.90;;;;;;5111054;27;20478;-67
2023/01/30 01:09:39;;;;;;;46.70;19.90;;;6.80;99.90;;;;;;5117753;27;20068;-66
2023/01/30 01:12:05;;;;;;;49.00;20.98;;;6.80;99.90;;;;;;5107520;27;20643;-66
2023/01/30 01:14:32;;;;;;;47.88;21.35;;;6.80;99.90;;;;;;5102940;27;20054;-68
2023/01/30 01:16:57;;;;;;;49.17;19.90;;;6.80;99.90;;;;;;5121908;27;20045;-66
2023/01/30 01:19:23;;;;;;;43.35;18.73;;;6.80;99.90;;;;;;5122483;27;20039;-66
2023/01/30 01:21:49;;;;;;;44.03;19.92;;;6.80;99.90;;;;;;5103404;27;20035;-66
2023/01/30 01:24:15;;;;;;;49.30;20.67;;;6.80;99.90;;;;;;5104198;27;20130;-67
2023/01/30 01:26:42;;;;;;;46.45;20.77;;;6.70;99.90;;;;;;5103726;27;20035;-67
2023/01/30 01:29:14;;;;;;;49.55;20.60;;;6.80;99.90;;;;;;5105243;27;20027;-67
2023/01/30 01:31:41;;;;;;;41.90;19.30;;;6.70;99.90;;;;;;5098372;27;20090;-67
2023/01/30 01:34:06;;;;;;;48.53;18.02;;;6.70;99.90;;;;;;5101754;28;20118;-67
2023/01/30 01:36:32;;;;;;;43.17;17.23;;;6.60;99.90;;;;;;5106631;28;20126;-67
2023/01/30 01:38:57;;;;;;;37.80;15.32;;;6.70;99.90;;;;;;5104197;28;20496;-68
2023/01/30 01:41:23;;;;;;;31.02;12.65;;;6.80;99.90;;;;;;5124434;27;20084;-67
2023/01/30 01:43:58;;;;;;;27.88;11.95;;;6.70;99.90;;;;;;5124652;27;20498;-67
2023/01/30 01:46:45;;;;;;;35.35;13.20;;;6.80;99.90;;;;;;5106414;27;20075;-65
2023/01/30 01:49:25;;;;;;;28.40;11.98;;;6.80;99.90;;;;;;5107230;27;20031;-67
2023/01/30 01:52:06;;;;;;;26.75;8.45;;;6.80;99.90;;;;;;5110734;27;20035;-67
2023/01/30 01:54:41;;;;;;;31.38;11.65;;;6.80;99.90;;;;;;5107120;27;20088;-66
2023/01/30 01:57:16;;;;;;;36.05;12.05;;;6.90;99.90;;;;;;5110260;27;20044;-67
2023/01/30 01:59:51;;;;;;;35.97;10.60;;;6.90;99.90;;;;;;5107440;27;20035;-66
2023/01/30 02:02:18;;;;;;;41.20;12.73;;;6.70;99.90;;;;;;5103288;27;20408;-68
2023/01/30 02:05:01;;;;;;;35.22;11.95;;;6.70;99.90;;;;;;5099963;27;20458;-67
2023/01/30 02:07:32;;;;;;;26.17;9.55;;;6.70;99.90;;;;;;5108568;27;20535;-67
2023/01/30 02:09:58;;;;;;;31.45;9.48;;;6.70;99.90;;;;;;5115220;27;20113;-68
2023/01/30 02:12:24;;;;;;;35.22;11.95;;;6.80;99.90;;;;;;5111942;27;20126;-67
2023/01/30 02:14:50;;;;;;;26.25;10.00;;;6.70;99.90;;;;;;5127637;27;20035;-67
2023/01/30 02:17:16;;;;;;;28.80;10.63;;;6.70;99.90;;;;;;5107707;27;20099;-68
2023/01/30 02:19:44;;;;;;;30.13;9.65;;;6.80;99.90;;;;;;5108464;27;20342;-68
2023/01/30 02:22:19;;;;;;;29.35;9.75;;;6.70;99.90;;;;;;5107837;27;20047;-68
2023/01/30 02:24:44;;;;;;;35.58;10.43;;;6.80;99.90;;;;;;5125600;27;20043;-67
2023/01/30 02:27:19;;;;;;;18.70;7.65;;;6.80;99.90;;;;;;5109464;27;20035;-69
2023/01/30 02:30:09;;;;;;;25.50;9.07;;;6.80;99.90;;;;;;5107823;27;20035;-67
2023/01/30 02:33:00;;;;;;;21.67;7.57;;;6.80;99.90;;;;;;5108720;27;20031;-68
2023/01/30 02:36:11;;;;;;;22.70;6.97;;;6.80;99.90;;;;;;5110854;27;20454;-67
2023/01/30 02:38:46;;;;;;;27.90;8.95;;;6.80;99.90;;;;;;5077684;27;20413;-66
2023/01/30 02:41:42;;;;;;;22.17;8.45;;;6.80;99.90;;;;;;5108515;27;20084;-67
2023/01/30 02:44:31;;;;;;;24.35;7.25;;;6.60;99.90;;;;;;5109322;27;20550;-67
2023/01/30 02:47:04;;;;;;;28.23;7.70;;;6.60;99.90;;;;;;5115858;27;20482;-68
2023/01/30 02:49:33;;;;;;;32.45;7.47;;;6.60;99.90;;;;;;5110008;27;20058;-66
2023/01/30 02:52:00;;;;;;;24.85;7.22;;;6.60;99.90;;;;;;5101910;27;20050;-68
2023/01/30 02:54:26;;;;;;;27.70;8.25;;;6.80;99.90;;;;;;5103128;27;20501;-67
2023/01/30 02:56:56;;;;;;;24.05;8.10;;;6.80;99.90;;;;;;5110194;27;20183;-67
2023/01/30 02:59:31;;;;;;;37.65;9.70;;;6.60;99.90;;;;;;5107196;27;20039;-68
2023/01/30 03:02:19;;;;;;;22.13;5.80;;;6.70;99.90;;;;;;5106970;27;20495;-68
2023/01/30 03:05:04;;;;;;;21.25;5.90;;;6.70;99.90;;;;;;5109753;27;20170;-70
2023/01/30 03:07:54;;;;;;;32.60;8.88;;;6.70;99.90;;;;;;5105038;27;20031;-69
2023/01/30 03:10:24;;;;;;;31.73;8.48;;;6.80;99.90;;;;;;5107568;27;20071;-68
2023/01/30 03:13:05;;;;;;;18.48;5.68;;;6.90;99.90;;;;;;5103069;27;20508;-67
2023/01/30 03:15:54;;;;;;;28.83;8.57;;;6.80;99.90;;;;;;5106083;27;20047;-67
2023/01/30 03:18:20;;;;;;;16.98;3.90;;;6.80;99.90;;;;;;5103056;27;20055;-67
2023/01/30 03:20:46;;;;;;;31.33;6.93;;;6.70;99.90;;;;;;5110727;27;20039;-68
2023/01/30 03:23:13;;;;;;;24.27;5.97;;;6.90;99.90;;;;;;5099458;27;20043;-67
2023/01/30 03:25:41;;;;;;;27.92;6.57;;;6.80;99.90;;;;;;5104121;27;20044;-68
2023/01/30 03:28:07;;;;;;;26.13;6.30;;;7.00;99.90;;;;;;5105081;27;20042;-71
2023/01/30 03:30:34;;;;;;;31.15;7.45;;;6.80;99.90;;;;;;5107631;27;20043;-68
2023/01/30 03:32:59;;;;;;;29.05;6.70;;;7.00;99.90;;;;;;5110544;27;20031;-70
2023/01/30 03:35:25;;;;;;;17.58;5.05;;;7.10;99.90;;;;;;5109727;27;20082;-67
2023/01/30 03:37:51;;;;;;;29.75;6.95;;;7.00;99.90;;;;;;5109966;27;20034;-67
2023/01/30 03:40:17;;;;;;;18.00;4.88;;;7.20;99.90;;;;;;5093535;27;20051;-70
2023/01/30 03:42:43;;;;;;;15.43;5.13;;;7.20;99.90;;;;;;5109819;27;20043;-68
2023/01/30 03:45:09;;;;;;;26.42;6.20;;;7.30;99.90;;;;;;5108944;27;20043;-68
2023/01/30 03:47:35;;;;;;;18.38;4.90;;;7.30;99.90;;;;;;5104527;27;20071;-64
2023/01/30 03:50:01;;;;;;;25.60;6.57;;;7.20;99.90;;;;;;5113139;27;20549;-66
2023/01/30 03:52:26;;;;;;;27.23;6.78;;;7.10;99.90;;;;;;5104587;27;20039;-68
2023/01/30 03:54:52;;;;;;;21.50;5.05;;;7.20;99.90;;;;;;5110719;27;20478;-68
2023/01/30 03:57:17;;;;;;;22.48;5.90;;;7.10;99.90;;;;;;5111535;27;20031;-68
2023/01/30 03:59:43;;;;;;;30.05;5.57;;;7.20;99.90;;;;;;5106307;27;20035;-72
2023/01/30 04:02:09;;;;;;;17.60;4.25;;;7.20;99.90;;;;;;5108552;27;20023;-70
2023/01/30 04:04:34;;;;;;;19.85;4.35;;;7.10;99.90;;;;;;5104280;27;20123;-68
2023/01/30 04:07:00;;;;;;;23.50;5.82;;;7.10;99.90;;;;;;5105596;27;20039;-70
2023/01/30 04:09:25;;;;;;;17.45;5.93;;;7.20;99.90;;;;;;5099276;27;20046;-69
2023/01/30 04:11:51;;;;;;;21.90;6.32;;;7.20;99.90;;;;;;5088544;27;20871;-69
2023/01/30 04:14:17;;;;;;;32.67;6.18;;;7.40;99.90;;;;;;5107356;27;20034;-68
2023/01/30 04:16:43;;;;;;;16.40;4.18;;;7.40;99.90;;;;;;5105229;27;20035;-68
2023/01/30 04:19:08;;;;;;;14.73;4.72;;;7.40;99.90;;;;;;5106845;27;20046;-69
2023/01/30 04:21:34;;;;;;;23.95;5.28;;;7.40;99.90;;;;;;5104934;27;20566;-70
2023/01/30 04:23:59;;;;;;;17.30;4.70;;;7.50;99.90;;;;;;5105887;27;20043;-68
2023/01/30 04:26:25;;;;;;;27.17;5.35;;;7.50;99.90;;;;;;5103101;27;20431;-68
2023/01/30 04:28:51;;;;;;;21.65;4.70;;;7.50;99.90;;;;;;5107214;27;20173;-67
2023/01/30 04:31:16;;;;;;;21.83;4.72;;;7.50;99.90;;;;;;5107698;27;20060;-68
2023/01/30 04:33:42;;;;;;;23.15;4.32;;;7.50;99.90;;;;;;5104453;27;20039;-66
2023/01/30 04:36:09;;;;;;;22.00;4.57;;;7.40;99.90;;;;;;5103827;27;20077;-69
2023/01/30 04:38:35;;;;;;;20.05;4.20;;;7.40;99.90;;;;;;5104650;27;20043;-68
2023/01/30 04:41:01;;;;;;;20.17;4.25;;;7.40;99.90;;;;;;5103861;27;20045;-67
2023/01/30 04:43:28;;;;;;;12.20;3.20;;;7.40;99.90;;;;;;5103370;27;20442;-67
2023/01/30 04:45:54;;;;;;;17.77;3.90;;;7.40;99.90;;;;;;5101258;27;20513;-67
2023/01/30 04:48:22;;;;;;;21.27;3.90;;;7.40;99.90;;;;;;5103777;27;20027;-73
2023/01/30 04:50:49;;;;;;;19.98;3.88;;;7.40;99.90;;;;;;5107042;27;20039;-67
2023/01/30 04:53:17;;;;;;;20.90;4.30;;;7.30;99.90;;;;;;5104695;27;20117;-67
2023/01/30 04:55:43;;;;;;;20.35;3.92;;;7.30;99.90;;;;;;5107150;27;20044;-69
2023/01/30 04:58:08;;;;;;;19.30;3.35;;;7.20;99.90;;;;;;5106276;27;20050;-68
2023/01/30 05:00:34;;;;;;;18.38;3.30;;;7.20;99.90;;;;;;5109541;27;20069;-69
2023/01/30 05:03:00;;;;;;;21.85;4.05;;;7.10;99.90;;;;;;5101264;27;20047;-69
2023/01/30 05:05:26;;;;;;;14.85;3.53;;;7.00;99.90;;;;;;5105450;27;20065;-69
2023/01/30 05:07:52;;;;;;;15.63;3.22;;;7.00;99.90;;;;;;5108557;27;20035;-67
2023/01/30 05:10:18;;;;;;;23.10;3.97;;;7.00;99.90;;;;;;5108631;27;20042;-67
2023/01/30 05:12:44;;;;;;;21.38;4.57;;;7.00;99.90;;;;;;5089119;27;20035;-68
2023/01/30 05:15:11;;;;;;;21.33;3.83;;;6.90;99.90;;;;;;5104511;27;20043;-68
2023/01/30 05:17:37;;;;;;;17.90;3.63;;;6.90;99.90;;;;;;5103454;27;20672;-67
2023/01/30 05:20:04;;;;;;;25.80;4.32;;;6.80;99.90;;;;;;5102806;27;20047;-68
2023/01/30 05:22:30;;;;;;;21.48;3.42;;;6.70;99.90;;;;;;5098388;27;20397;-67
2023/01/30 05:24:55;;;;;;;19.75;3.20;;;6.60;99.90;;;;;;5103964;28;20050;-67
2023/01/30 05:27:21;;;;;;;17.27;3.65;;;6.60;99.90;;;;;;5103125;28;20513;-68
2023/01/30 05:29:46;;;;;;;26.30;4.38;;;6.60;99.90;;;;;;5103878;28;20031;-67
2023/01/30 05:32:14;;;;;;;34.35;5.47;;;6.50;99.90;;;;;;5100096;28;20382;-68
2023/01/30 05:34:40;;;;;;;22.98;4.22;;;6.50;99.90;;;;;;5100983;28;20084;-68
2023/01/30 05:37:06;;;;;;;28.23;4.30;;;6.50;99.90;;;;;;5100417;28;20043;-68
2023/01/30 05:39:31;;;;;;;20.38;4.40;;;6.40;99.90;;;;;;5103453;28;20036;-67
2023/01/30 05:41:57;;;;;;;31.63;3.92;;;6.40;99.90;;;;;;5103383;27;20206;-68
2023/01/30 05:44:22;;;;;;;25.45;3.42;;;6.40;99.90;;;;;;5100407;27;20046;-68
2023/01/30 05:46:48;;;;;;;22.42;4.10;;;6.40;99.90;;;;;;5101207;27;20303;-68
2023/01/30 05:49:14;;;;;;;21.65;4.38;;;6.30;99.90;;;;;;5103176;28;20035;-67
2023/01/30 05:51:40;;;;;;;16.90;2.95;;;6.30;99.90;;;;;;5108283;27;20035;-66
2023/01/30 05:54:05;;;;;;;12.55;3.17;;;6.30;99.90;;;;;;5110730;28;20719;-70
2023/01/30 05:56:33;;;;;;;22.20;2.70;;;6.30;99.90;;;;;;5105912;27;20061;-68
2023/01/30 05:59:00;;;;;;;26.90;4.40;;;6.20;99.90;;;;;;5100572;28;20398;-67
2023/01/30 06:01:27;;;;;;;34.85;5.00;;;6.20;99.90;;;;;;5101132;28;20042;-69
2023/01/30 06:03:53;;;;;;;32.53;4.28;;;6.10;99.90;;;;;;5102226;28;20099;-68
2023/01/30 06:06:19;;;;;;;27.80;4.38;;;6.00;99.90;;;;;;5111241;27;20039;-67
2023/01/30 06:08:45;;;;;;;14.55;2.80;;;6.00;99.90;;;;;;5115550;28;20319;-67
2023/01/30 06:11:13;;;;;;;18.25;3.00;;;6.00;99.90;;;;;;5107866;28;20114;-68
2023/01/30 06:13:39;;;;;;;16.85;3.28;;;5.90;99.90;;;;;;5105632;28;20691;-68
2023/01/30 06:16:06;;;;;;;35.80;4.32;;;5.90;99.90;;;;;;5109722;28;20482;-67
2023/01/30 06:18:31;;;;;;;19.55;3.60;;;5.90;99.90;;;;;;5107434;27;20038;-69
2023/01/30 06:20:57;;;;;;;25.30;3.25;;;6.00;99.90;;;;;;5103853;28;20070;-65
2023/01/30 06:23:23;;;;;;;20.92;3.25;;;5.90;99.90;;;;;;5107139;28;20073;-69
2023/01/30 06:25:49;;;;;;;23.00;3.22;;;6.00;99.90;;;;;;5105420;28;20043;-67
2023/01/30 06:28:16;;;;;;;22.88;3.88;;;5.90;99.90;;;;;;5105099;28;20034;-68
2023/01/30 06:30:42;;;;;;;24.20;2.97;;;5.90;99.90;;;;;;5105897;27;20039;-67
2023/01/30 06:33:08;;;;;;;19.08;2.88;;;5.90;99.90;;;;;;5103410;27;20385;-67
2023/01/30 06:35:35;;;;;;;29.13;3.67;;;6.00;99.90;;;;;;5104236;27;20094;-67
2023/01/30 06:38:01;;;;;;;21.20;3.53;;;6.00;99.90;;;;;;5104062;27;20546;-66
2023/01/30 06:40:26;;;;;;;23.70;3.95;;;5.90;99.90;;;;;;5111085;27;20047;-69
2023/01/30 06:42:52;;;;;;;34.50;4.70;;;5.90;99.90;;;;;;5118766;27;20438;-67
2023/01/30 06:45:18;;;;;;;27.20;3.55;;;6.00;99.90;;;;;;5120849;27;20096;-68
2023/01/30 06:47:52;;;;;;;14.90;2.95;;;6.00;99.90;;;;;;5106816;27;20027;-66
2023/01/30 06:50:19;;;;;;;25.40;3.80;;;6.10;99.90;;;;;;5124161;27;20039;-67
2023/01/30 06:52:47;;;;;;;24.88;3.70;;;6.20;99.90;;;;;;5102550;27;20035;-67
2023/01/30 06:55:15;;;;;;;26.17;3.85;;;6.20;99.90;;;;;;5108922;27;20046;-67
2023/01/30 06:57:41;;;;;;;19.92;2.75;;;6.20;99.90;;;;;;5118241;27;20035;-68
2023/01/30 07:00:10;;;;;;;38.00;3.55;;;6.20;99.90;;;;;;5114420;27;20042;-67
2023/01/30 07:02:36;;;;;;;18.20;2.63;;;6.20;99.90;;;;;;5110743;27;20473;-68
2023/01/30 07:05:03;;;;;;;21.77;3.47;;;6.20;99.90;;;;;;5114813;27;20074;-68
2023/01/30 07:07:29;;;;;;;26.73;2.50;;;6.10;99.90;;;;;;5110301;27;20465;-65
2023/01/30 07:09:55;;;;;;;22.02;2.97;;;6.00;99.90;;;;;;5111121;27;20092;-67
2023/01/30 07:12:21;;;;;;;23.92;3.58;;;6.00;99.90;;;;;;5110818;27;20035;-68
2023/01/30 07:14:46;;;;;;;31.15;3.78;;;6.00;99.90;;;;;;5113208;27;20110;-67
2023/01/30 07:17:13;;;;;;;24.35;2.97;;;6.00;99.90;;;;;;5104620;27;20098;-66
2023/01/30 07:19:39;;;;;;;27.92;3.55;;;6.00;99.90;;;;;;5109993;27;20515;-67
2023/01/30 07:22:04;;;;;;;26.63;3.95;;;5.90;99.90;;;;;;5118958;27;20043;-67
2023/01/30 07:24:30;;;;;;;29.52;3.67;;;5.90;99.90;;;;;;5109206;27;20035;-66
2023/01/30 07:26:55;;;;;;;24.42;3.63;;;6.00;99.90;;;;;;5114533;27;20520;-67
2023/01/30 07:29:21;;;;;;;24.52;3.22;;;6.00;99.90;;;;;;5094249;27;20091;-67
2023/01/30 07:31:47;;;;;;;21.48;2.78;;;6.00;99.90;;;;;;5095163;27;20035;-69
2023/01/30 07:34:15;;;;;;;24.13;3.25;;;6.00;99.90;;;;;;5109381;27;20370;-68
2023/01/30 07:36:41;;;;;;;24.50;3.05;;;6.00;99.90;;;;;;5129999;27;20473;-71
2023/01/30 07:39:08;;;;;;;22.35;2.78;;;6.00;99.90;;;;;;5106514;27;20032;-69
2023/01/30 07:41:34;;;;;;;27.63;3.80;;;6.00;99.90;;;;;;5122368;27;20087;-69
2023/01/30 07:44:03;;;;;;;20.70;4.22;;;6.00;99.90;;;;;;5108343;27;20118;-67
2023/01/30 07:46:33;;;;;;;21.85;3.47;;;6.10;99.90;;;;;;5113161;27;20527;-66
2023/01/30 07:49:03;;;;;;;30.35;3.92;;;6.00;99.90;;;;;;5108992;27;20673;-66
2023/01/30 07:51:29;;;;;;;28.92;6.03;;;6.00;99.90;;;;;;5108686;27;20035;-69
2023/01/30 07:53:55;;;;;;;29.73;4.65;;;6.10;99.90;;;;;;5108118;27;20153;-69
2023/01/30 07:56:21;;;;;;;22.80;3.67;;;6.10;99.90;;;;;;5124820;27;20133;-69
2023/01/30 07:58:47;;;;;;;20.27;3.25;;;6.10;99.90;;;;;;5106266;27;20046;-67
2023/01/30 08:01:13;;;;;;;30.35;4.05;;;6.20;99.90;;;;;;5107431;27;20035;-68
2023/01/30 08:03:38;;;;;;;21.10;2.90;;;6.20;99.90;;;;;;5104120;27;20070;-68
2023/01/30 08:06:04;;;;;;;31.17;3.45;;;6.20;99.90;;;;;;5107578;27;20054;-68
2023/01/30 08:08:30;;;;;;;25.48;3.80;;;6.30;99.90;;;;;;5103949;27;20039;-68
2023/01/30 08:10:55;;;;;;;31.23;3.83;;;6.30;99.90;;;;;;5109343;27;20034;-68
2023/01/30 08:13:21;;;;;;;27.05;3.55;;;6.40;99.90;;;;;;5104106;27;20035;-68
2023/01/30 08:15:47;;;;;;;23.77;3.72;;;6.40;99.90;;;;;;5115910;27;20046;-67
2023/01/30 08:18:12;;;;;;;22.20;3.17;;;6.40;99.90;;;;;;5122902;27;20043;-67
2023/01/30 08:20:38;;;;;;;35.03;4.78;;;6.50;99.90;;;;;;5115583;27;20130;-68
2023/01/30 08:23:04;;;;;;;21.20;3.65;;;6.60;99.90;;;;;;5113590;27;20547;-69
2023/01/30 08:25:30;;;;;;;30.42;4.80;;;6.60;99.90;;;;;;5110808;27;20133;-69
2023/01/30 08:27:59;;;;;;;27.48;4.00;;;6.70;99.90;;;;;;5114090;27;20075;-69
2023/01/30 08:30:24;;;;;;;18.35;3.17;;;6.70;99.90;;;;;;5114649;27;20038;-70
2023/01/30 08:32:50;;;;;;;29.45;3.95;;;6.60;99.90;;;;;;5113911;27;20031;-65
2023/01/30 08:35:16;;;;;;;34.35;4.90;;;6.60;99.90;;;;;;5089999;27;20489;-67
2023/01/30 08:37:42;;;;;;;19.40;3.92;;;6.60;99.90;;;;;;5114541;27;20083;-69
2023/01/30 08:40:08;;;;;;;21.13;3.13;;;6.70;99.90;;;;;;5098844;27;20039;-69
2023/01/30 08:42:34;;;;;;;21.65;3.95;;;6.70;99.90;;;;;;5103043;27;20030;-69
2023/01/30 08:45:00;;;;;;;18.55;2.67;;;6.70;99.90;;;;;;5100525;27;20101;-67
2023/01/30 08:47:26;;;;;;;18.15;2.88;;;6.70;99.90;;;;;;5104078;27;20031;-68
2023/01/30 08:49:51;;;;;;;23.95;4.35;;;6.70;99.90;;;;;;5123751;27;20459;-70
2023/01/30 08:52:18;;;;;;;29.02;4.15;;;6.70;99.90;;;;;;5111622;27;20129;-69
2023/01/30 08:54:43;;;;;;;24.10;3.75;;;6.70;99.90;;;;;;5093944;28;20038;-70
2023/01/30 08:57:09;;;;;;;25.40;4.50;;;6.70;99.90;;;;;;5112347;27;20469;-70
2023/01/30 08:59:35;;;;;;;26.13;3.63;;;6.80;99.90;;;;;;5099977;27;20031;-68
2023/01/30 09:02:01;;;;;;;21.17;3.90;;;6.80;99.90;;;;;;5118098;27;20043;-68
2023/01/30 09:04:29;;;;;;;32.55;4.47;;;6.80;99.90;;;;;;5106027;27;20035;-70
2023/01/30 09:06:55;;;;;;;15.75;3.00;;;6.80;99.90;;;;;;5109305;27;20078;-70
2023/01/30 09:09:20;;;;;;;25.70;4.57;;;6.90;99.90;;;;;;5107766;27;20065;-69
2023/01/30 09:11:49;;;;;;;31.17;4.63;;;6.90;99.90;;;;;;5105600;27;20035;-69
2023/01/30 09:14:18;;;;;;;26.42;4.10;;;6.90;99.90;;;;;;5101517;27;20473;-67
2023/01/30 09:16:45;;;;;;;28.98;4.40;;;6.90;99.90;;;;;;5113329;27;20043;-71
2023/01/30 09:19:10;;;;;;;21.90;3.38;;;7.00;99.90;;;;;;5105992;28;20039;-69
2023/01/30 09:21:37;;;;;;;26.55;4.03;;;7.00;99.90;;;;;;5093284;28;20497;-68
2023/01/30 09:24:03;;;;;;;19.92;3.60;;;7.00;99.90;;;;;;5105595;27;20077;-68
2023/01/30 09:26:29;;;;;;;17.88;3.78;;;7.10;99.90;;;;;;5104580;28;20031;-72
2023/01/30 09:28:55;;;;;;;32.13;4.18;;;7.10;99.90;;;;;;5106953;27;20092;-68
2023/01/30 09:31:20;;;;;;;28.73;4.75;;;7.00;99.90;;;;;;5104222;28;20115;-67
2023/01/30 09:33:46;;;;;;;36.30;5.35;;;7.00;99.90;;;;;;5105434;27;20042;-68
2023/01/30 09:36:11;;;;;;;27.23;4.50;;;7.10;99.90;;;;;;5102477;27;20039;-71
2023/01/30 09:38:37;;;;;;;29.33;6.03;;;7.00;99.90;;;;;;5108077;28;20039;-70
2023/01/30 09:41:39;;;;;;;28.92;5.80;;;7.00;99.90;;;;;;5107739;28;20042;-70
2023/01/30 09:44:16;;;;;;;17.80;3.13;;;7.00;99.90;;;;;;5105118;28;20108;-70
2023/01/30 09:46:59;;;;;;;31.48;5.43;;;7.10;99.90;;;;;;5088652;27;20115;-69
2023/01/30 09:49:34;;;;;;;29.35;4.57;;;7.00;99.90;;;;;;5108363;28;20112;-70
2023/01/30 09:52:18;;;;;;;25.50;4.57;;;7.10;99.90;;;;;;5108899;28;20043;-70
2023/01/30 09:54:45;;;;;;;40.10;6.13;;;7.10;99.90;;;;;;5101400;27;20036;-71
2023/01/30 09:57:23;;;;;;;34.85;4.55;;;7.20;99.90;;;;;;5106679;28;20040;-70
2023/01/30 10:00:09;;;;;;;29.63;4.80;;;7.20;99.90;;;;;;5101964;28;20067;-68
2023/01/30 10:02:38;;;;;;;23.00;3.17;;;7.30;99.90;;;;;;5090649;27;20039;-69
2023/01/30 10:05:04;;;;;;;25.73;4.72;;;7.30;99.90;;;;;;5107984;28;20043;-71
2023/01/30 10:08:01;;;;;;;27.10;4.07;;;7.40;99.90;;;;;;5103361;27;20119;-71
2023/01/30 10:10:38;;;;;;;24.63;3.95;;;7.50;99.90;;;;;;5108551;27;20666;-68
2023/01/30 10:13:34;;;;;;;28.27;4.35;;;7.50;99.90;;;;;;5112335;27;20039;-70
2023/01/30 10:16:23;;;;;;;29.92;4.40;;;7.50;99.90;;;;;;5105416;27;20062;-69
2023/01/30 10:19:13;;;;;;;24.50;3.40;;;7.50;99.90;;;;;;5107551;27;20072;-68
2023/01/30 10:21:51;;;;;;;18.73;3.45;;;7.50;99.90;;;;;;5107402;27;20277;-73
2023/01/30 10:24:22;;;;;;;22.92;4.35;;;7.50;99.90;;;;;;5107223;27;20039;-69
2023/01/30 10:26:48;;;;;;;32.38;4.97;;;7.60;99.90;;;;;;5102719;27;20062;-67
2023/01/30 10:29:44;;;;;;;19.35;4.22;;;7.70;99.90;;;;;;5106172;27;20028;-68
2023/01/30 10:32:27;;;;;;;33.03;5.20;;;7.80;99.90;;;;;;5109779;27;20039;-69
2023/01/30 10:34:56;;;;;;;23.52;4.13;;;7.90;99.90;;;;;;5110939;27;20043;-70
2023/01/30 10:37:41;;;;;;;23.38;3.78;;;8.00;99.90;;;;;;5107980;27;20435;-70
2023/01/30 10:40:29;;;;;;;20.67;3.60;;;8.00;99.90;;;;;;5110337;27;20038;-67
2023/01/30 10:43:22;;;;;;;21.73;3.70;;;8.10;99.90;;;;;;5111448;27;20035;-68
2023/01/30 10:46:06;;;;;;;27.40;5.03;;;8.10;99.90;;;;;;5109861;27;20043;-70
2023/01/30 10:48:41;;;;;;;25.75;4.35;;;8.10;99.90;;;;;;5125981;27;20054;-66
2023/01/30 10:51:22;;;;;;;23.80;4.45;;;8.10;99.90;;;;;;5111599;27;20124;-68
2023/01/30 10:54:16;;;;;;;19.30;3.50;;;8.10;99.90;;;;;;5110161;27;20027;-66
2023/01/30 10:57:02;;;;;;;24.13;4.35;;;8.20;99.90;;;;;;5110847;27;20035;-67
2023/01/30 10:59:54;;;;;;;22.80;3.40;;;8.20;99.90;;;;;;5110134;27;20039;-68
2023/01/30 11:02:25;;;;;;;;;;;8.30;99.90;;;;;;5109512;27;20031;-73
2023/01/30 11:05:08;;;;;;;27.13;4.47;;;8.10;99.90;;;;;;5110634;27;19915;-70
2023/01/30 11:07:33;;;;;;;24.50;4.13;;;8.10;99.90;;;;;;5106559;27;20035;-66
2023/01/30 11:10:00;;;;;;;19.42;3.42;;;8.10;99.90;;;;;;5109015;27;20099;-70
2023/01/30 11:12:25;;;;;;;26.95;4.80;;;8.10;99.90;;;;;;5109275;27;20118;-70
2023/01/30 11:14:58;;;;;;;35.55;6.07;;;8.10;99.90;;;;;;5110927;27;20122;-73
2023/01/30 11:17:35;;;;;;;30.30;5.05;;;8.10;99.90;;;;;;5094607;28;20083;-68
2023/01/30 11:20:15;;;;;;;20.77;3.75;;;8.20;99.90;;;;;;5107726;27;20094;-74
2023/01/30 11:22:59;;;;;;;36.45;5.90;;;8.20;99.90;;;;;;5106994;27;20128;-70
2023/01/30 11:25:25;;;;;;;19.48;4.00;;;8.20;99.90;;;;;;5112481;27;20521;-67
2023/01/30 11:28:02;;;;;;;28.10;4.40;;;8.10;99.90;;;;;;5113044;27;20114;-71
2023/01/30 11:30:36;;;;;;;21.50;4.03;;;8.10;99.90;;;;;;5116488;27;20042;-67
2023/01/30 11:33:11;;;;;;;20.20;4.03;;;8.10;99.90;;;;;;5108770;27;20488;-66
2023/01/30 11:35:50;;;;;;;18.92;3.88;;;8.10;99.90;;;;;;5100866;27;20436;-68
2023/01/30 11:38:21;;;;;;;32.35;4.90;;;8.10;99.90;;;;;;5106940;27;20035;-67
2023/01/30 11:40:47;;;;;;;28.08;4.13;;;8.00;99.90;;;;;;5111075;27;20035;-72
2023/01/30 11:43:13;;;;;;;26.73;4.93;;;8.10;99.90;;;;;;5109962;27;20059;-65
2023/01/30 11:45:45;;;;;;;31.50;5.28;;;8.20;99.90;;;;;;5110820;27;20123;-75
2023/01/30 11:48:21;;;;;;;30.55;5.40;;;8.40;99.90;;;;;;5111049;27;20036;-71
2023/01/30 11:50:56;;;;;;;32.80;5.68;;;8.40;99.90;;;;;;5107157;27;20042;-70
2023/01/30 11:53:36;;;;;;;25.80;4.90;;;8.50;99.90;;;;;;5093864;27;20400;-69
2023/01/30 11:56:21;;;;;;;21.10;4.60;;;8.60;99.90;;;;;;5104176;27;20599;-68
2023/01/30 11:59:02;;;;;;;18.17;3.80;;;8.50;99.90;;;;;;5111022;27;20147;-68
2023/01/30 12:01:32;;;;;;;20.87;3.30;;;8.40;99.90;;;;;;5091291;27;20043;-68
2023/01/30 12:03:59;;;;;;;29.92;4.82;;;8.40;99.90;;;;;;5111040;27;20088;-66
2023/01/30 12:06:30;;;;;;;33.03;4.38;;;8.30;99.90;;;;;;5108188;27;20088;-73
2023/01/30 12:08:56;;;;;;;30.25;4.65;;;8.30;99.90;;;;;;5108343;27;20511;-70
2023/01/30 12:11:46;;;;;;;22.80;4.85;;;8.30;99.90;;;;;;5113063;27;20050;-67
2023/01/30 12:14:41;;;;;;;26.25;4.65;;;8.10;99.90;;;;;;5114074;27;20047;-69
2023/01/30 12:17:51;;;;;;;27.90;5.30;;;7.90;99.90;;;;;;5116040;27;20045;-68
2023/01/30 12:20:59;;;;;;;24.85;4.10;;;7.90;99.90;;;;;;5104366;27;20413;-67
2023/01/30 12:23:51;;;;;;;26.60;4.50;;;7.80;99.90;;;;;;5107795;27;20042;-70
2023/01/30 12:26:29;;;;;;;25.77;4.57;;;7.90;99.90;;;;;;5116092;27;20050;-67
2023/01/30 12:29:30;;;;;;;27.58;5.00;;;7.90;99.90;;;;;;5103744;28;20502;-69
2023/01/30 12:32:14;;;;;;;28.90;3.80;;;7.80;99.90;;;;;;5099988;28;20069;-69
2023/01/30 12:34:41;;;;;;;18.20;3.60;;;7.50;99.90;;;;;;5090068;27;20035;-75
2023/01/30 12:37:39;;;;;;;15.65;3.05;;;7.10;99.90;;;;;;5110718;27;20475;-73
2023/01/30 12:40:40;;;;;;;12.60;1.85;;;6.80;99.90;;;;;;5110969;27;20464;-72
2023/01/30 12:43:09;;;;;;;12.27;2.15;;;6.80;99.90;;;;;;5107721;27;20481;-72
2023/01/30 12:45:46;;;;;;;20.70;3.00;;;6.70;99.90;;;;;;5108902;27;20040;-73
2023/01/30 12:48:33;;;;;;;17.13;2.50;;;6.80;99.90;;;;;;5099779;27;20073;-70
2023/01/30 12:51:41;;;;;;;14.10;2.67;;;6.90;99.90;;;;;;5120605;27;20039;-72
2023/01/30 12:54:20;;;;;;;18.15;2.63;;;7.00;99.90;;;;;;5108722;27;20566;-74
2023/01/30 12:56:54;;;;;;;15.40;2.65;;;7.20;99.90;;;;;;5105152;27;20043;-72
2023/01/30 12:59:37;;;;;;;15.98;1.95;;;7.20;99.90;;;;;;5086746;27;20040;-69
2023/01/30 13:02:36;;;;;;;15.13;2.45;;;7.30;99.90;;;;;;5093145;27;20481;-68
2023/01/30 13:05:20;;;;;;;19.27;3.05;;;7.40;99.90;;;;;;5105934;27;20087;-72
2023/01/30 13:08:00;;;;;;;22.27;2.72;;;7.60;99.90;;;;;;5105290;27;20066;-69
2023/01/30 13:10:44;;;;;;;21.85;3.20;;;7.60;99.90;;;;;;5106972;27;20122;-68